sensor_id;sensor_type;location;lat;lon;timestamp;P1;durP1;ratioP1;P2;durP2;ratioP2
75112;SDS011;63692;47.338;8.520;2023-05-29T05:07:02;11.07;;;5.57;;
75112;SDS011;63692;47.338;8.520;2023-05-29T05:16:58;11.25;;;6.07;;
75112;SDS011;63692;47.338;8.520;2023-05-29T05:31:41;11.68;;;5.43;;
75112;SDS011;63692;47.338;8.520;2023-05-29T05:34:07;11.60;;;5.45;;
75112;SDS011;63692;47.338;8.520;2023-05-29T05:39:04;11.95;;;5.10;;
75112;SDS011;63692;47.338;8.520;2023-05-29T05:41:30;10.30;;;5.38;;
75112;SDS011;63692;47.338;8.520;2023-05-29T05:43:56;10.88;;;5.32;;
75112;SDS011;63692;47.338;8.520;2023-05-29T05:46:21;12.05;;;5.38;;
75112;SDS011;63692;47.338;8.520;2023-05-29T06:03:47;11.93;;;5.70;;
75112;SDS011;63692;47.338;8.520;2023-05-29T06:06:13;12.38;;;5.72;;
75112;SDS011;63692;47.338;8.520;2023-05-29T06:08:39;10.82;;;5.25;;
75112;SDS011;63692;47.338;8.520;2023-05-29T06:11:06;12.20;;;5.00;;
75112;SDS011;63692;47.338;8.520;2023-05-29T06:15:59;10.05;;;5.30;;
75112;SDS011;63692;47.338;8.520;2023-05-29T06:18:25;12.35;;;5.28;;
75112;SDS011;63692;47.338;8.520;2023-05-29T06:20:51;15.02;;;6.47;;
75112;SDS011;63692;47.338;8.520;2023-05-29T06:23:18;11.07;;;6.03;;
75112;SDS011;63692;47.338;8.520;2023-05-29T06:25:44;12.23;;;5.68;;
75112;SDS011;63692;47.338;8.520;2023-05-29T06:28:10;12.23;;;5.72;;
75112;SDS011;63692;47.338;8.520;2023-05-29T06:30:36;10.90;;;5.63;;
75112;SDS011;63692;47.338;8.520;2023-05-29T06:33:01;10.23;;;5.20;;
75112;SDS011;63692;47.338;8.520;2023-05-29T06:35:29;10.07;;;5.18;;
75112;SDS011;63692;47.338;8.520;2023-05-29T06:38:03;12.05;;;5.93;;
75112;SDS011;63692;47.338;8.520;2023-05-29T06:40:31;13.35;;;5.65;;
75112;SDS011;63692;47.338;8.520;2023-05-29T06:42:57;12.70;;;5.57;;
75112;SDS011;63692;47.338;8.520;2023-05-29T06:45:24;13.35;;;5.72;;
75112;SDS011;63692;47.338;8.520;2023-05-29T06:47:56;12.70;;;5.65;;
75112;SDS011;63692;47.338;8.520;2023-05-29T06:50:22;10.13;;;4.90;;
75112;SDS011;63692;47.338;8.520;2023-05-29T06:52:50;14.55;;;5.93;;
75112;SDS011;63692;47.338;8.520;2023-05-29T06:55:15;12.52;;;5.53;;
75112;SDS011;63692;47.338;8.520;2023-05-29T06:57:41;12.57;;;5.53;;
75112;SDS011;63692;47.338;8.520;2023-05-29T07:00:07;13.00;;;5.80;;
75112;SDS011;63692;47.338;8.520;2023-05-29T07:02:35;11.90;;;5.07;;
75112;SDS011;63692;47.338;8.520;2023-05-29T07:05:01;10.02;;;5.00;;
75112;SDS011;63692;47.338;8.520;2023-05-29T07:07:26;10.57;;;5.47;;
75112;SDS011;63692;47.338;8.520;2023-05-29T07:09:52;13.63;;;5.78;;
75112;SDS011;63692;47.338;8.520;2023-05-29T07:12:18;11.13;;;5.38;;
75112;SDS011;63692;47.338;8.520;2023-05-29T07:14:43;14.35;;;5.70;;
75112;SDS011;63692;47.338;8.520;2023-05-29T07:17:09;14.23;;;5.55;;
75112;SDS011;63692;47.338;8.520;2023-05-29T07:19:35;11.25;;;5.30;;
75112;SDS011;63692;47.338;8.520;2023-05-29T07:22:00;11.00;;;5.85;;
75112;SDS011;63692;47.338;8.520;2023-05-29T07:24:26;10.32;;;4.95;;
75112;SDS011;63692;47.338;8.520;2023-05-29T07:26:52;12.05;;;5.20;;
75112;SDS011;63692;47.338;8.520;2023-05-29T07:29:17;11.02;;;5.22;;
75112;SDS011;63692;47.338;8.520;2023-05-29T07:31:45;9.68;;;5.28;;
75112;SDS011;63692;47.338;8.520;2023-05-29T07:34:11;10.02;;;4.90;;
75112;SDS011;63692;47.338;8.520;2023-05-29T07:36:47;11.80;;;5.10;;
75112;SDS011;63692;47.338;8.520;2023-05-29T07:39:31;9.35;;;4.75;;
75112;SDS011;63692;47.338;8.520;2023-05-29T07:41:58;9.80;;;4.95;;
75112;SDS011;63692;47.338;8.520;2023-05-29T07:44:26;11.32;;;5.05;;
75112;SDS011;63692;47.338;8.520;2023-05-29T07:46:51;11.45;;;4.72;;
75112;SDS011;63692;47.338;8.520;2023-05-29T07:49:17;9.93;;;5.00;;
75112;SDS011;63692;47.338;8.520;2023-05-29T07:51:44;12.57;;;5.50;;
75112;SDS011;63692;47.338;8.520;2023-05-29T07:54:10;11.95;;;4.97;;
75112;SDS011;63692;47.338;8.520;2023-05-29T07:56:35;10.57;;;4.78;;
75112;SDS011;63692;47.338;8.520;2023-05-29T07:59:01;11.15;;;5.22;;
75112;SDS011;63692;47.338;8.520;2023-05-29T08:01:28;10.02;;;5.10;;
75112;SDS011;63692;47.338;8.520;2023-05-29T08:03:54;11.07;;;5.18;;
75112;SDS011;63692;47.338;8.520;2023-05-29T08:06:20;9.85;;;4.80;;
75112;SDS011;63692;47.338;8.520;2023-05-29T08:08:46;9.13;;;4.72;;
75112;SDS011;63692;47.338;8.520;2023-05-29T08:11:12;11.45;;;5.53;;
75112;SDS011;63692;47.338;8.520;2023-05-29T08:13:38;10.85;;;4.80;;
75112;SDS011;63692;47.338;8.520;2023-05-29T08:16:03;9.57;;;4.80;;
75112;SDS011;63692;47.338;8.520;2023-05-29T08:18:30;10.15;;;4.70;;
75112;SDS011;63692;47.338;8.520;2023-05-29T08:20:57;10.55;;;4.78;;
75112;SDS011;63692;47.338;8.520;2023-05-29T08:23:23;12.15;;;5.40;;
75112;SDS011;63692;47.338;8.520;2023-05-29T08:25:49;9.88;;;4.55;;
75112;SDS011;63692;47.338;8.520;2023-05-29T08:28:15;8.82;;;4.72;;
75112;SDS011;63692;47.338;8.520;2023-05-29T08:30:41;13.60;;;4.88;;
75112;SDS011;63692;47.338;8.520;2023-05-29T08:33:07;10.20;;;4.80;;
75112;SDS011;63692;47.338;8.520;2023-05-29T08:35:33;10.73;;;5.05;;
75112;SDS011;63692;47.338;8.520;2023-05-29T08:37:58;10.68;;;4.90;;
75112;SDS011;63692;47.338;8.520;2023-05-29T08:40:24;7.07;;;4.28;;
75112;SDS011;63692;47.338;8.520;2023-05-29T08:45:22;9.80;;;4.65;;
75112;SDS011;63692;47.338;8.520;2023-05-29T08:47:52;9.98;;;4.53;;
75112;SDS011;63692;47.338;8.520;2023-05-29T08:50:19;13.52;;;4.50;;
75112;SDS011;63692;47.338;8.520;2023-05-29T08:52:46;10.77;;;4.50;;
75112;SDS011;63692;47.338;8.520;2023-05-29T08:55:12;9.40;;;4.72;;
75112;SDS011;63692;47.338;8.520;2023-05-29T08:57:39;10.98;;;4.53;;
75112;SDS011;63692;47.338;8.520;2023-05-29T09:00:07;11.65;;;4.47;;
75112;SDS011;63692;47.338;8.520;2023-05-29T09:02:38;10.43;;;5.20;;
75112;SDS011;63692;47.338;8.520;2023-05-29T09:05:10;9.95;;;4.40;;
75112;SDS011;63692;47.338;8.520;2023-05-29T09:07:37;9.38;;;4.50;;
75112;SDS011;63692;47.338;8.520;2023-05-29T09:10:08;9.18;;;4.72;;
75112;SDS011;63692;47.338;8.520;2023-05-29T09:12:34;12.40;;;4.60;;
75112;SDS011;63692;47.338;8.520;2023-05-29T09:15:00;9.52;;;4.63;;
75112;SDS011;63692;47.338;8.520;2023-05-29T09:17:32;10.38;;;4.82;;
75112;SDS011;63692;47.338;8.520;2023-05-29T09:22:25;8.07;;;4.28;;
75112;SDS011;63692;47.338;8.520;2023-05-29T09:24:51;10.10;;;4.40;;
75112;SDS011;63692;47.338;8.520;2023-05-29T09:27:17;10.88;;;4.20;;
75112;SDS011;63692;47.338;8.520;2023-05-29T09:29:44;10.27;;;4.30;;
75112;SDS011;63692;47.338;8.520;2023-05-29T09:32:14;11.35;;;4.57;;
75112;SDS011;63692;47.338;8.520;2023-05-29T09:34:42;8.05;;;4.35;;
75112;SDS011;63692;47.338;8.520;2023-05-29T09:37:08;7.60;;;4.30;;
75112;SDS011;63692;47.338;8.520;2023-05-29T09:39:44;8.98;;;3.78;;
75112;SDS011;63692;47.338;8.520;2023-05-29T09:42:11;9.35;;;4.55;;
75112;SDS011;63692;47.338;8.520;2023-05-29T09:44:39;9.85;;;4.18;;
75112;SDS011;63692;47.338;8.520;2023-05-29T09:47:09;7.80;;;4.13;;
75112;SDS011;63692;47.338;8.520;2023-05-29T09:49:42;8.98;;;4.47;;
75112;SDS011;63692;47.338;8.520;2023-05-29T09:52:08;10.02;;;3.95;;
75112;SDS011;63692;47.338;8.520;2023-05-29T09:54:42;7.72;;;4.18;;
75112;SDS011;63692;47.338;8.520;2023-05-29T09:57:14;10.77;;;4.22;;
75112;SDS011;63692;47.338;8.520;2023-05-29T09:59:42;7.85;;;4.05;;
75112;SDS011;63692;47.338;8.520;2023-05-29T10:02:16;8.93;;;4.22;;
75112;SDS011;63692;47.338;8.520;2023-05-29T10:04:43;7.47;;;4.05;;
75112;SDS011;63692;47.338;8.520;2023-05-29T10:07:20;9.80;;;4.30;;
75112;SDS011;63692;47.338;8.520;2023-05-29T10:09:52;9.00;;;4.22;;
75112;SDS011;63692;47.338;8.520;2023-05-29T10:12:31;9.65;;;4.50;;
75112;SDS011;63692;47.338;8.520;2023-05-29T10:14:59;10.32;;;4.15;;
75112;SDS011;63692;47.338;8.520;2023-05-29T10:17:28;8.13;;;4.07;;
75112;SDS011;63692;47.338;8.520;2023-05-29T10:20:01;12.07;;;4.45;;
75112;SDS011;63692;47.338;8.520;2023-05-29T10:22:29;8.27;;;4.32;;
75112;SDS011;63692;47.338;8.520;2023-05-29T10:24:57;11.15;;;4.22;;
75112;SDS011;63692;47.338;8.520;2023-05-29T10:27:24;10.40;;;4.20;;
75112;SDS011;63692;47.338;8.520;2023-05-29T10:30:02;9.27;;;4.38;;
75112;SDS011;63692;47.338;8.520;2023-05-29T10:50:02;7.82;;;4.10;;
75112;SDS011;63692;47.338;8.520;2023-05-29T10:52:32;7.90;;;4.30;;
75112;SDS011;63692;47.338;8.520;2023-05-29T10:54:58;10.02;;;4.00;;
75112;SDS011;63692;47.338;8.520;2023-05-29T10:57:27;8.15;;;3.95;;
75112;SDS011;63692;47.338;8.520;2023-05-29T11:00:04;7.93;;;3.80;;
75112;SDS011;63692;47.338;8.520;2023-05-29T11:02:49;11.13;;;3.90;;
75112;SDS011;63692;47.338;8.520;2023-05-29T11:05:18;11.27;;;4.85;;
75112;SDS011;63692;47.338;8.520;2023-05-29T11:07:51;7.60;;;3.85;;
75112;SDS011;63692;47.338;8.520;2023-05-29T11:10:43;8.23;;;3.88;;
75112;SDS011;63692;47.338;8.520;2023-05-29T11:18:54;7.05;;;3.70;;
75112;SDS011;63692;47.338;8.520;2023-05-29T11:24:01;9.27;;;4.40;;
75112;SDS011;63692;47.338;8.520;2023-05-29T11:26:28;11.05;;;4.00;;
75112;SDS011;63692;47.338;8.520;2023-05-29T11:29:01;7.05;;;3.97;;
75112;SDS011;63692;47.338;8.520;2023-05-29T11:31:29;9.40;;;4.32;;
75112;SDS011;63692;47.338;8.520;2023-05-29T11:34:02;9.15;;;3.97;;
75112;SDS011;63692;47.338;8.520;2023-05-29T11:36:31;8.32;;;4.03;;
75112;SDS011;63692;47.338;8.520;2023-05-29T11:38:58;6.60;;;3.88;;
75112;SDS011;63692;47.338;8.520;2023-05-29T11:46:27;11.00;;;4.07;;
75112;SDS011;63692;47.338;8.520;2023-05-29T11:48:57;6.68;;;3.85;;
75112;SDS011;63692;47.338;8.520;2023-05-29T11:51:23;8.85;;;3.95;;
75112;SDS011;63692;47.338;8.520;2023-05-29T11:53:49;6.70;;;3.90;;
75112;SDS011;63692;47.338;8.520;2023-05-29T11:56:18;7.68;;;3.70;;
75112;SDS011;63692;47.338;8.520;2023-05-29T11:58:43;7.50;;;3.80;;
75112;SDS011;63692;47.338;8.520;2023-05-29T12:01:10;6.70;;;4.03;;
75112;SDS011;63692;47.338;8.520;2023-05-29T12:03:39;7.07;;;4.10;;
75112;SDS011;63692;47.338;8.520;2023-05-29T12:06:06;11.23;;;4.43;;
75112;SDS011;63692;47.338;8.520;2023-05-29T12:08:33;6.57;;;4.03;;
75112;SDS011;63692;47.338;8.520;2023-05-29T12:11:00;11.80;;;3.97;;
75112;SDS011;63692;47.338;8.520;2023-05-29T12:13:26;7.95;;;3.67;;
75112;SDS011;63692;47.338;8.520;2023-05-29T12:15:54;8.85;;;4.82;;
75112;SDS011;63692;47.338;8.520;2023-05-29T12:18:21;8.88;;;4.05;;
75112;SDS011;63692;47.338;8.520;2023-05-29T12:20:48;7.95;;;4.53;;
75112;SDS011;63692;47.338;8.520;2023-05-29T12:23:13;7.60;;;3.83;;
75112;SDS011;63692;47.338;8.520;2023-05-29T12:25:39;7.50;;;3.75;;
75112;SDS011;63692;47.338;8.520;2023-05-29T12:28:05;9.77;;;3.88;;
75112;SDS011;63692;47.338;8.520;2023-05-29T12:30:31;8.15;;;3.72;;
75112;SDS011;63692;47.338;8.520;2023-05-29T12:33:01;10.27;;;4.45;;
75112;SDS011;63692;47.338;8.520;2023-05-29T12:35:27;8.55;;;3.83;;
75112;SDS011;63692;47.338;8.520;2023-05-29T12:38:00;6.07;;;3.72;;
75112;SDS011;63692;47.338;8.520;2023-05-29T12:43:14;5.72;;;3.80;;
75112;SDS011;63692;47.338;8.520;2023-05-29T12:45:39;8.30;;;3.95;;
75112;SDS011;63692;47.338;8.520;2023-05-29T12:48:05;8.20;;;3.40;;
75112;SDS011;63692;47.338;8.520;2023-05-29T12:50:37;8.57;;;3.85;;
75112;SDS011;63692;47.338;8.520;2023-05-29T12:53:10;11.43;;;4.18;;
75112;SDS011;63692;47.338;8.520;2023-05-29T12:55:38;6.47;;;3.78;;
75112;SDS011;63692;47.338;8.520;2023-05-29T12:58:09;8.23;;;3.97;;
75112;SDS011;63692;47.338;8.520;2023-05-29T13:00:41;8.98;;;4.00;;
75112;SDS011;63692;47.338;8.520;2023-05-29T13:03:07;7.32;;;4.10;;
75112;SDS011;63692;47.338;8.520;2023-05-29T13:05:34;8.48;;;4.10;;
75112;SDS011;63692;47.338;8.520;2023-05-29T13:08:00;7.93;;;3.80;;
75112;SDS011;63692;47.338;8.520;2023-05-29T13:10:26;9.57;;;4.03;;
75112;SDS011;63692;47.338;8.520;2023-05-29T13:12:53;9.65;;;4.10;;
75112;SDS011;63692;47.338;8.520;2023-05-29T13:15:23;6.95;;;3.90;;
75112;SDS011;63692;47.338;8.520;2023-05-29T13:17:49;9.13;;;4.63;;
75112;SDS011;63692;47.338;8.520;2023-05-29T13:20:16;11.05;;;4.40;;
75112;SDS011;63692;47.338;8.520;2023-05-29T13:22:43;9.20;;;4.50;;
75112;SDS011;63692;47.338;8.520;2023-05-29T13:25:10;10.55;;;4.35;;
75112;SDS011;63692;47.338;8.520;2023-05-29T13:27:38;9.95;;;4.00;;
75112;SDS011;63692;47.338;8.520;2023-05-29T13:30:07;9.88;;;4.35;;
75112;SDS011;63692;47.338;8.520;2023-05-29T13:32:33;12.88;;;4.07;;
75112;SDS011;63692;47.338;8.520;2023-05-29T13:34:59;7.28;;;3.42;;
75112;SDS011;63692;47.338;8.520;2023-05-29T13:37:25;8.05;;;4.35;;
75112;SDS011;63692;47.338;8.520;2023-05-29T13:39:52;8.90;;;3.55;;
75112;SDS011;63692;47.338;8.520;2023-05-29T13:42:18;11.73;;;4.65;;
75112;SDS011;63692;47.338;8.520;2023-05-29T13:44:44;10.43;;;4.65;;
75112;SDS011;63692;47.338;8.520;2023-05-29T13:47:10;7.53;;;4.38;;
75112;SDS011;63692;47.338;8.520;2023-05-29T13:49:36;8.05;;;4.25;;
75112;SDS011;63692;47.338;8.520;2023-05-29T13:52:02;7.68;;;3.88;;
75112;SDS011;63692;47.338;8.520;2023-05-29T13:54:28;7.70;;;3.88;;
75112;SDS011;63692;47.338;8.520;2023-05-29T13:57:00;9.18;;;4.07;;
75112;SDS011;63692;47.338;8.520;2023-05-29T13:59:33;7.45;;;3.90;;
75112;SDS011;63692;47.338;8.520;2023-05-29T14:01:59;8.55;;;4.25;;
75112;SDS011;63692;47.338;8.520;2023-05-29T14:04:25;10.30;;;4.40;;
75112;SDS011;63692;47.338;8.520;2023-05-29T14:06:51;9.95;;;4.20;;
75112;SDS011;63692;47.338;8.520;2023-05-29T14:09:18;8.80;;;3.78;;
75112;SDS011;63692;47.338;8.520;2023-05-29T14:11:51;8.43;;;3.92;;
75112;SDS011;63692;47.338;8.520;2023-05-29T14:14:17;8.35;;;4.05;;
75112;SDS011;63692;47.338;8.520;2023-05-29T14:16:43;10.18;;;4.45;;
75112;SDS011;63692;47.338;8.520;2023-05-29T14:19:08;6.70;;;4.07;;
75112;SDS011;63692;47.338;8.520;2023-05-29T14:21:34;9.63;;;3.83;;
75112;SDS011;63692;47.338;8.520;2023-05-29T14:24:00;9.30;;;4.05;;
75112;SDS011;63692;47.338;8.520;2023-05-29T14:26:26;8.93;;;3.90;;
75112;SDS011;63692;47.338;8.520;2023-05-29T14:28:52;6.95;;;3.65;;
75112;SDS011;63692;47.338;8.520;2023-05-29T14:31:17;8.27;;;3.70;;
75112;SDS011;63692;47.338;8.520;2023-05-29T14:33:43;8.85;;;4.00;;
75112;SDS011;63692;47.338;8.520;2023-05-29T14:36:09;10.55;;;4.10;;
75112;SDS011;63692;47.338;8.520;2023-05-29T14:38:34;7.88;;;4.05;;
75112;SDS011;63692;47.338;8.520;2023-05-29T14:41:01;6.13;;;3.90;;
75112;SDS011;63692;47.338;8.520;2023-05-29T14:43:27;9.43;;;4.35;;
75112;SDS011;63692;47.338;8.520;2023-05-29T14:45:53;7.07;;;3.70;;
75112;SDS011;63692;47.338;8.520;2023-05-29T14:48:18;12.32;;;3.88;;
75112;SDS011;63692;47.338;8.520;2023-05-29T14:50:44;9.05;;;3.67;;
75112;SDS011;63692;47.338;8.520;2023-05-29T14:53:10;7.43;;;3.70;;
75112;SDS011;63692;47.338;8.520;2023-05-29T14:55:35;7.57;;;3.88;;
75112;SDS011;63692;47.338;8.520;2023-05-29T14:58:03;11.73;;;3.90;;
75112;SDS011;63692;47.338;8.520;2023-05-29T15:00:29;7.65;;;3.88;;
75112;SDS011;63692;47.338;8.520;2023-05-29T15:02:55;10.13;;;3.60;;
75112;SDS011;63692;47.338;8.520;2023-05-29T15:05:24;9.13;;;3.70;;
75112;SDS011;63692;47.338;8.520;2023-05-29T15:07:53;8.43;;;3.60;;
75112;SDS011;63692;47.338;8.520;2023-05-29T15:10:21;8.75;;;3.53;;
75112;SDS011;63692;47.338;8.520;2023-05-29T15:12:49;7.75;;;3.95;;
75112;SDS011;63692;47.338;8.520;2023-05-29T15:15:23;12.90;;;4.00;;
75112;SDS011;63692;47.338;8.520;2023-05-29T15:17:49;9.88;;;3.72;;
75112;SDS011;63692;47.338;8.520;2023-05-29T15:20:18;9.05;;;3.60;;
75112;SDS011;63692;47.338;8.520;2023-05-29T15:22:45;6.63;;;3.40;;
75112;SDS011;63692;47.338;8.520;2023-05-29T15:25:11;7.50;;;3.55;;
75112;SDS011;63692;47.338;8.520;2023-05-29T15:27:36;9.27;;;3.50;;
75112;SDS011;63692;47.338;8.520;2023-05-29T15:30:09;6.18;;;3.75;;
75112;SDS011;63692;47.338;8.520;2023-05-29T15:32:43;11.80;;;3.83;;
75112;SDS011;63692;47.338;8.520;2023-05-29T15:35:10;10.30;;;4.05;;
75112;SDS011;63692;47.338;8.520;2023-05-29T15:37:37;7.07;;;3.75;;
75112;SDS011;63692;47.338;8.520;2023-05-29T15:40:03;10.32;;;3.80;;
75112;SDS011;63692;47.338;8.520;2023-05-29T15:42:31;9.45;;;3.97;;
75112;SDS011;63692;47.338;8.520;2023-05-29T15:44:57;10.63;;;3.53;;
75112;SDS011;63692;47.338;8.520;2023-05-29T15:47:23;9.45;;;3.35;;
75112;SDS011;63692;47.338;8.520;2023-05-29T15:49:49;8.82;;;3.55;;
75112;SDS011;63692;47.338;8.520;2023-05-29T15:52:14;6.75;;;3.55;;
75112;SDS011;63692;47.338;8.520;2023-05-29T15:54:40;10.80;;;3.50;;
75112;SDS011;63692;47.338;8.520;2023-05-29T15:57:06;12.27;;;4.25;;
75112;SDS011;63692;47.338;8.520;2023-05-29T15:59:32;7.32;;;3.53;;
75112;SDS011;63692;47.338;8.520;2023-05-29T16:01:58;6.45;;;3.60;;
75112;SDS011;63692;47.338;8.520;2023-05-29T16:04:25;6.10;;;3.33;;
75112;SDS011;63692;47.338;8.520;2023-05-29T16:06:51;7.80;;;3.50;;
75112;SDS011;63692;47.338;8.520;2023-05-29T16:09:17;7.97;;;3.35;;
75112;SDS011;63692;47.338;8.520;2023-05-29T16:11:42;7.22;;;3.55;;
75112;SDS011;63692;47.338;8.520;2023-05-29T16:14:08;12.45;;;4.13;;
75112;SDS011;63692;47.338;8.520;2023-05-29T16:16:34;7.13;;;3.53;;
75112;SDS011;63692;47.338;8.520;2023-05-29T16:19:01;6.60;;;3.38;;
75112;SDS011;63692;47.338;8.520;2023-05-29T16:21:28;8.15;;;3.95;;
75112;SDS011;63692;47.338;8.520;2023-05-29T16:23:56;9.10;;;4.13;;
75112;SDS011;63692;47.338;8.520;2023-05-29T16:26:26;9.25;;;3.63;;
75112;SDS011;63692;47.338;8.520;2023-05-29T16:28:52;8.65;;;3.70;;
75112;SDS011;63692;47.338;8.520;2023-05-29T16:31:19;7.88;;;3.40;;
75112;SDS011;63692;47.338;8.520;2023-05-29T16:33:45;8.63;;;3.40;;
75112;SDS011;63692;47.338;8.520;2023-05-29T16:36:11;9.80;;;3.67;;
75112;SDS011;63692;47.338;8.520;2023-05-29T16:38:36;9.10;;;3.42;;
75112;SDS011;63692;47.338;8.520;2023-05-29T16:41:02;7.15;;;3.97;;
75112;SDS011;63692;47.338;8.520;2023-05-29T16:43:28;6.68;;;3.55;;
75112;SDS011;63692;47.338;8.520;2023-05-29T16:45:54;10.77;;;3.70;;
75112;SDS011;63692;47.338;8.520;2023-05-29T16:50:47;11.50;;;4.43;;
75112;SDS011;63692;47.338;8.520;2023-05-29T16:53:13;8.98;;;3.75;;
75112;SDS011;63692;47.338;8.520;2023-05-29T16:55:39;7.15;;;3.42;;
75112;SDS011;63692;47.338;8.520;2023-05-29T16:58:05;6.28;;;3.40;;
75112;SDS011;63692;47.338;8.520;2023-05-29T17:00:31;7.60;;;3.50;;
75112;SDS011;63692;47.338;8.520;2023-05-29T17:02:57;6.88;;;3.50;;
75112;SDS011;63692;47.338;8.520;2023-05-29T17:05:22;7.88;;;3.10;;
75112;SDS011;63692;47.338;8.520;2023-05-29T17:07:48;6.93;;;3.95;;
75112;SDS011;63692;47.338;8.520;2023-05-29T17:10:14;8.55;;;3.60;;
75112;SDS011;63692;47.338;8.520;2023-05-29T17:12:39;6.80;;;3.45;;
75112;SDS011;63692;47.338;8.520;2023-05-29T17:15:07;7.70;;;3.70;;
75112;SDS011;63692;47.338;8.520;2023-05-29T17:17:33;7.07;;;3.53;;
75112;SDS011;63692;47.338;8.520;2023-05-29T17:19:58;7.68;;;3.42;;
75112;SDS011;63692;47.338;8.520;2023-05-29T17:22:24;9.90;;;3.53;;
75112;SDS011;63692;47.338;8.520;2023-05-29T17:24:49;6.53;;;3.25;;
75112;SDS011;63692;47.338;8.520;2023-05-29T17:27:15;5.72;;;3.38;;
75112;SDS011;63692;47.338;8.520;2023-05-29T17:29:41;7.32;;;3.83;;
75112;SDS011;63692;47.338;8.520;2023-05-29T17:32:07;6.30;;;3.45;;
75112;SDS011;63692;47.338;8.520;2023-05-29T17:34:35;7.75;;;3.55;;
75112;SDS011;63692;47.338;8.520;2023-05-29T17:37:01;6.88;;;3.13;;
75112;SDS011;63692;47.338;8.520;2023-05-29T17:39:27;5.57;;;3.45;;
75112;SDS011;63692;47.338;8.520;2023-05-29T17:41:53;8.10;;;3.42;;
75112;SDS011;63692;47.338;8.520;2023-05-29T17:44:19;5.95;;;3.20;;
75112;SDS011;63692;47.338;8.520;2023-05-29T17:46:44;5.32;;;3.38;;
75112;SDS011;63692;47.338;8.520;2023-05-29T17:49:10;7.28;;;3.03;;
75112;SDS011;63692;47.338;8.520;2023-05-29T17:51:36;11.80;;;3.53;;
75112;SDS011;63692;47.338;8.520;2023-05-29T17:54:03;5.38;;;2.90;;
75112;SDS011;63692;47.338;8.520;2023-05-29T17:56:35;7.93;;;3.20;;
75112;SDS011;63692;47.338;8.520;2023-05-29T17:59:02;6.70;;;3.20;;
75112;SDS011;63692;47.338;8.520;2023-05-29T18:01:28;5.60;;;3.30;;
75112;SDS011;63692;47.338;8.520;2023-05-29T18:03:53;6.43;;;3.38;;
75112;SDS011;63692;47.338;8.520;2023-05-29T18:06:19;7.97;;;3.58;;
75112;SDS011;63692;47.338;8.520;2023-05-29T18:08:44;6.93;;;3.00;;
75112;SDS011;63692;47.338;8.520;2023-05-29T18:11:10;8.82;;;2.90;;
75112;SDS011;63692;47.338;8.520;2023-05-29T18:13:36;4.78;;;2.85;;
75112;SDS011;63692;47.338;8.520;2023-05-29T18:16:02;7.68;;;3.10;;
75112;SDS011;63692;47.338;8.520;2023-05-29T18:18:28;8.52;;;2.80;;
75112;SDS011;63692;47.338;8.520;2023-05-29T18:20:53;4.78;;;2.90;;
75112;SDS011;63692;47.338;8.520;2023-05-29T18:23:19;5.72;;;2.80;;
75112;SDS011;63692;47.338;8.520;2023-05-29T18:25:46;8.15;;;3.40;;
75112;SDS011;63692;47.338;8.520;2023-05-29T18:28:12;5.18;;;2.78;;
75112;SDS011;63692;47.338;8.520;2023-05-29T18:30:37;8.27;;;3.05;;
75112;SDS011;63692;47.338;8.520;2023-05-29T18:33:04;8.00;;;3.03;;
75112;SDS011;63692;47.338;8.520;2023-05-29T18:35:29;7.05;;;2.65;;
75112;SDS011;63692;47.338;8.520;2023-05-29T18:37:55;6.22;;;2.85;;
75112;SDS011;63692;47.338;8.520;2023-05-29T18:40:21;5.78;;;2.70;;
75112;SDS011;63692;47.338;8.520;2023-05-29T18:42:46;6.38;;;2.88;;
75112;SDS011;63692;47.338;8.520;2023-05-29T18:45:12;6.75;;;3.15;;
75112;SDS011;63692;47.338;8.520;2023-05-29T18:47:38;4.88;;;2.95;;
75112;SDS011;63692;47.338;8.520;2023-05-29T18:50:03;5.65;;;2.72;;
75112;SDS011;63692;47.338;8.520;2023-05-29T18:52:29;7.57;;;2.78;;
75112;SDS011;63692;47.338;8.520;2023-05-29T18:54:55;9.20;;;3.00;;
75112;SDS011;63692;47.338;8.520;2023-05-29T18:57:20;8.10;;;3.42;;
75112;SDS011;63692;47.338;8.520;2023-05-29T18:59:46;6.90;;;3.30;;
75112;SDS011;63692;47.338;8.520;2023-05-29T19:02:13;6.13;;;3.22;;
75112;SDS011;63692;47.338;8.520;2023-05-29T19:04:39;7.55;;;2.67;;
75112;SDS011;63692;47.338;8.520;2023-05-29T19:07:05;8.50;;;3.17;;
75112;SDS011;63692;47.338;8.520;2023-05-29T19:09:31;5.15;;;2.80;;
75112;SDS011;63692;47.338;8.520;2023-05-29T19:11:56;7.65;;;3.00;;
75112;SDS011;63692;47.338;8.520;2023-05-29T19:14:22;5.30;;;3.08;;
75112;SDS011;63692;47.338;8.520;2023-05-29T19:16:48;5.97;;;2.90;;
75112;SDS011;63692;47.338;8.520;2023-05-29T19:19:13;4.85;;;2.70;;
75112;SDS011;63692;47.338;8.520;2023-05-29T19:21:40;5.95;;;2.78;;
75112;SDS011;63692;47.338;8.520;2023-05-29T19:24:06;5.68;;;2.70;;
75112;SDS011;63692;47.338;8.520;2023-05-29T19:26:33;5.22;;;2.92;;
75112;SDS011;63692;47.338;8.520;2023-05-29T19:38:49;8.50;;;2.80;;
75112;SDS011;63692;47.338;8.520;2023-05-29T19:48:38;6.40;;;2.67;;
